sensor_id;sensor_type;location;lat;lon;timestamp;P1;durP1;ratioP1;P2;durP2;ratioP2
20144;SDS011;10233;50.814;6.590;2024-01-11T00:00:38;13.77;;;4.55;;
20144;SDS011;10233;50.814;6.590;2024-01-11T00:01:39;14.87;;;5.77;;
20144;SDS011;10233;50.814;6.590;2024-01-11T00:02:39;12.88;;;5.80;;
20144;SDS011;10233;50.814;6.590;2024-01-11T00:03:40;16.03;;;6.27;;
20144;SDS011;10233;50.814;6.590;2024-01-11T00:04:40;10.33;;;4.40;;
20144;SDS011;10233;50.814;6.590;2024-01-11T00:05:41;13.10;;;5.47;;
20144;SDS011;10233;50.814;6.590;2024-01-11T00:06:42;11.35;;;5.80;;
20144;SDS011;10233;50.814;6.590;2024-01-11T00:07:43;9.52;;;5.68;;
20144;SDS011;10233;50.814;6.590;2024-01-11T00:08:44;13.70;;;5.47;;
20144;SDS011;10233;50.814;6.590;2024-01-11T00:09:44;14.23;;;7.13;;
20144;SDS011;10233;50.814;6.590;2024-01-11T00:10:44;10.90;;;5.40;;
20144;SDS011;10233;50.814;6.590;2024-01-11T00:11:45;18.70;;;7.15;;
20144;SDS011;10233;50.814;6.590;2024-01-11T00:12:46;11.80;;;4.97;;
20144;SDS011;10233;50.814;6.590;2024-01-11T00:13:46;10.93;;;5.00;;
20144;SDS011;10233;50.814;6.590;2024-01-11T00:14:47;9.33;;;5.07;;
20144;SDS011;10233;50.814;6.590;2024-01-11T00:15:47;11.10;;;5.33;;
20144;SDS011;10233;50.814;6.590;2024-01-11T00:16:47;11.67;;;5.57;;
20144;SDS011;10233;50.814;6.590;2024-01-11T00:17:48;10.40;;;5.00;;
20144;SDS011;10233;50.814;6.590;2024-01-11T00:18:48;18.97;;;5.13;;
20144;SDS011;10233;50.814;6.590;2024-01-11T00:19:49;12.07;;;5.05;;
20144;SDS011;10233;50.814;6.590;2024-01-11T00:20:50;11.43;;;5.15;;
20144;SDS011;10233;50.814;6.590;2024-01-11T00:21:52;10.02;;;5.30;;
20144;SDS011;10233;50.814;6.590;2024-01-11T00:22:52;12.50;;;4.60;;
20144;SDS011;10233;50.814;6.590;2024-01-11T00:23:52;12.30;;;4.80;;
20144;SDS011;10233;50.814;6.590;2024-01-11T00:24:53;13.93;;;4.45;;
20144;SDS011;10233;50.814;6.590;2024-01-11T00:25:54;10.83;;;5.10;;
20144;SDS011;10233;50.814;6.590;2024-01-11T00:26:54;11.60;;;5.90;;
20144;SDS011;10233;50.814;6.590;2024-01-11T00:27:54;15.85;;;4.82;;
20144;SDS011;10233;50.814;6.590;2024-01-11T00:28:55;11.73;;;4.50;;
20144;SDS011;10233;50.814;6.590;2024-01-11T00:29:55;12.73;;;5.80;;
20144;SDS011;10233;50.814;6.590;2024-01-11T00:30:56;17.95;;;6.18;;
20144;SDS011;10233;50.814;6.590;2024-01-11T00:31:56;14.17;;;5.13;;
20144;SDS011;10233;50.814;6.590;2024-01-11T00:32:58;11.23;;;3.92;;
20144;SDS011;10233;50.814;6.590;2024-01-11T00:33:58;11.97;;;4.83;;
20144;SDS011;10233;50.814;6.590;2024-01-11T00:34:59;18.10;;;7.30;;
20144;SDS011;10233;50.814;6.590;2024-01-11T00:35:59;12.40;;;6.10;;
20144;SDS011;10233;50.814;6.590;2024-01-11T00:37:00;11.33;;;4.73;;
20144;SDS011;10233;50.814;6.590;2024-01-11T00:38:00;10.27;;;4.07;;
20144;SDS011;10233;50.814;6.590;2024-01-11T00:39:01;15.52;;;5.60;;
20144;SDS011;10233;50.814;6.590;2024-01-11T00:40:01;11.37;;;5.67;;
20144;SDS011;10233;50.814;6.590;2024-01-11T00:41:02;12.85;;;5.00;;
20144;SDS011;10233;50.814;6.590;2024-01-11T00:42:02;17.92;;;6.00;;
20144;SDS011;10233;50.814;6.590;2024-01-11T00:43:04;10.00;;;4.63;;
20144;SDS011;10233;50.814;6.590;2024-01-11T00:44:04;16.98;;;4.82;;
20144;SDS011;10233;50.814;6.590;2024-01-11T00:45:05;9.27;;;4.33;;
20144;SDS011;10233;50.814;6.590;2024-01-11T00:46:05;14.73;;;5.33;;
20144;SDS011;10233;50.814;6.590;2024-01-11T00:47:07;7.83;;;4.87;;
20144;SDS011;10233;50.814;6.590;2024-01-11T00:48:08;13.50;;;5.97;;
20144;SDS011;10233;50.814;6.590;2024-01-11T00:49:08;13.80;;;5.70;;
20144;SDS011;10233;50.814;6.590;2024-01-11T00:50:08;14.63;;;6.30;;
20144;SDS011;10233;50.814;6.590;2024-01-11T00:51:09;17.13;;;7.07;;
20144;SDS011;10233;50.814;6.590;2024-01-11T00:52:10;15.07;;;7.20;;
20144;SDS011;10233;50.814;6.590;2024-01-11T00:53:13;12.25;;;6.60;;
20144;SDS011;10233;50.814;6.590;2024-01-11T00:54:14;15.48;;;5.97;;
20144;SDS011;10233;50.814;6.590;2024-01-11T00:55:15;14.13;;;6.10;;
20144;SDS011;10233;50.814;6.590;2024-01-11T00:56:16;11.35;;;5.70;;
20144;SDS011;10233;50.814;6.590;2024-01-11T00:57:20;15.50;;;6.35;;
20144;SDS011;10233;50.814;6.590;2024-01-11T00:58:20;9.73;;;5.53;;
20144;SDS011;10233;50.814;6.590;2024-01-11T00:59:21;11.77;;;6.37;;
20144;SDS011;10233;50.814;6.590;2024-01-11T01:00:21;13.90;;;6.30;;
20144;SDS011;10233;50.814;6.590;2024-01-11T01:01:21;9.25;;;5.28;;
20144;SDS011;10233;50.814;6.590;2024-01-11T01:02:22;11.43;;;6.17;;
20144;SDS011;10233;50.814;6.590;2024-01-11T01:03:22;11.48;;;5.38;;
20144;SDS011;10233;50.814;6.590;2024-01-11T01:04:23;8.23;;;4.40;;
20144;SDS011;10233;50.814;6.590;2024-01-11T01:05:23;15.90;;;6.60;;
20144;SDS011;10233;50.814;6.590;2024-01-11T01:06:24;16.80;;;6.35;;
20144;SDS011;10233;50.814;6.590;2024-01-11T01:07:24;12.40;;;4.70;;
20144;SDS011;10233;50.814;6.590;2024-01-11T01:08:25;10.50;;;5.68;;
20144;SDS011;10233;50.814;6.590;2024-01-11T01:09:25;10.00;;;5.00;;
20144;SDS011;10233;50.814;6.590;2024-01-11T01:10:25;9.70;;;6.03;;
20144;SDS011;10233;50.814;6.590;2024-01-11T01:11:26;18.83;;;6.50;;
20144;SDS011;10233;50.814;6.590;2024-01-11T01:12:26;13.73;;;5.53;;
20144;SDS011;10233;50.814;6.590;2024-01-11T01:13:27;14.02;;;6.07;;
20144;SDS011;10233;50.814;6.590;2024-01-11T01:14:27;15.87;;;5.37;;
20144;SDS011;10233;50.814;6.590;2024-01-11T01:15:28;15.52;;;5.72;;
20144;SDS011;10233;50.814;6.590;2024-01-11T01:16:28;12.88;;;5.00;;
20144;SDS011;10233;50.814;6.590;2024-01-11T01:17:29;11.33;;;5.17;;
20144;SDS011;10233;50.814;6.590;2024-01-11T01:18:29;19.30;;;6.07;;
20144;SDS011;10233;50.814;6.590;2024-01-11T01:19:29;10.77;;;4.97;;
20144;SDS011;10233;50.814;6.590;2024-01-11T01:20:30;8.10;;;4.57;;
20144;SDS011;10233;50.814;6.590;2024-01-11T01:21:30;9.17;;;4.87;;
20144;SDS011;10233;50.814;6.590;2024-01-11T01:22:31;10.87;;;4.80;;
20144;SDS011;10233;50.814;6.590;2024-01-11T01:23:31;15.77;;;6.45;;
20144;SDS011;10233;50.814;6.590;2024-01-11T01:24:32;17.37;;;6.17;;
20144;SDS011;10233;50.814;6.590;2024-01-11T01:25:32;15.15;;;6.25;;
20144;SDS011;10233;50.814;6.590;2024-01-11T01:26:32;14.90;;;6.63;;
20144;SDS011;10233;50.814;6.590;2024-01-11T01:27:33;16.45;;;7.78;;
20144;SDS011;10233;50.814;6.590;2024-01-11T01:28:33;12.18;;;5.90;;
20144;SDS011;10233;50.814;6.590;2024-01-11T01:29:34;12.80;;;6.27;;
20144;SDS011;10233;50.814;6.590;2024-01-11T01:30:34;10.95;;;6.13;;
20144;SDS011;10233;50.814;6.590;2024-01-11T01:31:35;13.23;;;5.67;;
20144;SDS011;10233;50.814;6.590;2024-01-11T01:32:37;14.40;;;5.50;;
20144;SDS011;10233;50.814;6.590;2024-01-11T01:33:39;16.60;;;5.43;;
20144;SDS011;10233;50.814;6.590;2024-01-11T01:34:40;14.93;;;5.82;;
20144;SDS011;10233;50.814;6.590;2024-01-11T01:35:40;15.13;;;6.67;;
20144;SDS011;10233;50.814;6.590;2024-01-11T01:36:41;9.07;;;5.77;;
20144;SDS011;10233;50.814;6.590;2024-01-11T01:37:41;11.18;;;4.80;;
20144;SDS011;10233;50.814;6.590;2024-01-11T01:38:42;9.05;;;4.90;;
20144;SDS011;10233;50.814;6.590;2024-01-11T01:39:43;9.50;;;3.92;;
20144;SDS011;10233;50.814;6.590;2024-01-11T01:40:43;10.53;;;4.93;;
20144;SDS011;10233;50.814;6.590;2024-01-11T01:41:44;14.93;;;5.47;;
20144;SDS011;10233;50.814;6.590;2024-01-11T01:42:44;13.77;;;4.63;;
20144;SDS011;10233;50.814;6.590;2024-01-11T01:43:46;9.73;;;4.45;;
20144;SDS011;10233;50.814;6.590;2024-01-11T01:44:46;8.18;;;4.28;;
20144;SDS011;10233;50.814;6.590;2024-01-11T01:45:47;8.33;;;4.13;;
20144;SDS011;10233;50.814;6.590;2024-01-11T01:46:47;9.27;;;4.17;;
20144;SDS011;10233;50.814;6.590;2024-01-11T01:47:50;12.50;;;4.82;;
20144;SDS011;10233;50.814;6.590;2024-01-11T01:48:51;10.15;;;4.45;;
20144;SDS011;10233;50.814;6.590;2024-01-11T01:49:53;8.90;;;5.28;;
20144;SDS011;10233;50.814;6.590;2024-01-11T01:50:55;15.98;;;5.00;;
20144;SDS011;10233;50.814;6.590;2024-01-11T01:51:56;11.35;;;5.00;;
20144;SDS011;10233;50.814;6.590;2024-01-11T01:52:56;6.72;;;2.95;;
20144;SDS011;10233;50.814;6.590;2024-01-11T01:53:58;9.18;;;4.40;;
20144;SDS011;10233;50.814;6.590;2024-01-11T01:55:01;17.13;;;5.82;;
20144;SDS011;10233;50.814;6.590;2024-01-11T01:56:02;11.37;;;4.90;;
20144;SDS011;10233;50.814;6.590;2024-01-11T01:57:04;9.32;;;4.68;;
20144;SDS011;10233;50.814;6.590;2024-01-11T01:58:05;8.77;;;4.43;;
20144;SDS011;10233;50.814;6.590;2024-01-11T01:59:05;10.52;;;4.10;;
20144;SDS011;10233;50.814;6.590;2024-01-11T02:00:06;9.32;;;4.00;;
20144;SDS011;10233;50.814;6.590;2024-01-11T02:01:13;12.02;;;4.63;;
20144;SDS011;10233;50.814;6.590;2024-01-11T02:02:15;13.32;;;4.75;;
20144;SDS011;10233;50.814;6.590;2024-01-11T02:03:15;13.60;;;4.35;;
20144;SDS011;10233;50.814;6.590;2024-01-11T02:04:16;7.53;;;4.35;;
20144;SDS011;10233;50.814;6.590;2024-01-11T02:05:17;7.00;;;4.13;;
20144;SDS011;10233;50.814;6.590;2024-01-11T02:06:18;7.15;;;3.00;;
20144;SDS011;10233;50.814;6.590;2024-01-11T02:07:23;11.23;;;3.90;;
20144;SDS011;10233;50.814;6.590;2024-01-11T02:08:24;13.82;;;4.63;;
20144;SDS011;10233;50.814;6.590;2024-01-11T02:09:27;13.65;;;6.10;;
20144;SDS011;10233;50.814;6.590;2024-01-11T02:10:29;10.30;;;4.60;;
20144;SDS011;10233;50.814;6.590;2024-01-11T02:11:32;7.03;;;4.15;;
20144;SDS011;10233;50.814;6.590;2024-01-11T02:12:35;10.52;;;4.45;;
20144;SDS011;10233;50.814;6.590;2024-01-11T02:13:37;8.50;;;4.47;;
20144;SDS011;10233;50.814;6.590;2024-01-11T02:14:38;11.63;;;5.47;;
20144;SDS011;10233;50.814;6.590;2024-01-11T02:15:38;8.37;;;4.83;;
20144;SDS011;10233;50.814;6.590;2024-01-11T02:16:39;8.17;;;4.63;;
20144;SDS011;10233;50.814;6.590;2024-01-11T02:17:40;10.32;;;4.60;;
20144;SDS011;10233;50.814;6.590;2024-01-11T02:18:41;12.52;;;5.32;;
20144;SDS011;10233;50.814;6.590;2024-01-11T02:19:42;11.50;;;5.57;;
20144;SDS011;10233;50.814;6.590;2024-01-11T02:20:42;6.17;;;3.60;;
20144;SDS011;10233;50.814;6.590;2024-01-11T02:21:43;8.68;;;4.30;;
20144;SDS011;10233;50.814;6.590;2024-01-11T02:22:47;6.97;;;4.18;;
20144;SDS011;10233;50.814;6.590;2024-01-11T02:24:02;11.05;;;4.63;;
20144;SDS011;10233;50.814;6.590;2024-01-11T02:25:04;5.90;;;3.47;;
20144;SDS011;10233;50.814;6.590;2024-01-11T02:26:04;8.43;;;4.57;;
20144;SDS011;10233;50.814;6.590;2024-01-11T02:27:05;11.77;;;5.27;;
20144;SDS011;10233;50.814;6.590;2024-01-11T02:28:05;8.77;;;4.20;;
20144;SDS011;10233;50.814;6.590;2024-01-11T02:29:06;9.48;;;4.63;;
20144;SDS011;10233;50.814;6.590;2024-01-11T02:30:06;12.33;;;4.07;;
20144;SDS011;10233;50.814;6.590;2024-01-11T02:31:07;11.25;;;5.28;;
20144;SDS011;10233;50.814;6.590;2024-01-11T02:32:08;9.75;;;4.63;;
20144;SDS011;10233;50.814;6.590;2024-01-11T02:33:08;10.80;;;4.70;;
20144;SDS011;10233;50.814;6.590;2024-01-11T02:34:09;12.60;;;4.78;;
20144;SDS011;10233;50.814;6.590;2024-01-11T02:35:10;13.38;;;4.80;;
20144;SDS011;10233;50.814;6.590;2024-01-11T02:36:10;8.27;;;4.13;;
20144;SDS011;10233;50.814;6.590;2024-01-11T02:37:11;9.57;;;4.93;;
20144;SDS011;10233;50.814;6.590;2024-01-11T02:38:12;11.23;;;6.20;;
20144;SDS011;10233;50.814;6.590;2024-01-11T02:39:13;7.67;;;4.03;;
20144;SDS011;10233;50.814;6.590;2024-01-11T02:40:17;12.23;;;4.97;;
20144;SDS011;10233;50.814;6.590;2024-01-11T02:41:18;8.32;;;4.38;;
20144;SDS011;10233;50.814;6.590;2024-01-11T02:42:19;13.88;;;5.05;;
20144;SDS011;10233;50.814;6.590;2024-01-11T02:43:19;10.47;;;4.97;;
20144;SDS011;10233;50.814;6.590;2024-01-11T02:44:20;8.17;;;4.17;;
20144;SDS011;10233;50.814;6.590;2024-01-11T02:45:20;10.75;;;5.35;;
20144;SDS011;10233;50.814;6.590;2024-01-11T02:46:21;10.97;;;4.90;;
20144;SDS011;10233;50.814;6.590;2024-01-11T02:47:21;9.50;;;4.55;;
20144;SDS011;10233;50.814;6.590;2024-01-11T02:48:23;6.93;;;3.73;;
20144;SDS011;10233;50.814;6.590;2024-01-11T02:49:27;10.05;;;4.80;;
20144;SDS011;10233;50.814;6.590;2024-01-11T02:50:28;9.35;;;4.63;;
20144;SDS011;10233;50.814;6.590;2024-01-11T02:51:28;11.37;;;4.63;;
20144;SDS011;10233;50.814;6.590;2024-01-11T02:52:29;10.30;;;4.63;;
20144;SDS011;10233;50.814;6.590;2024-01-11T02:53:29;8.05;;;4.53;;
20144;SDS011;10233;50.814;6.590;2024-01-11T02:54:34;10.85;;;4.57;;
20144;SDS011;10233;50.814;6.590;2024-01-11T02:55:34;11.43;;;4.23;;
20144;SDS011;10233;50.814;6.590;2024-01-11T02:56:35;10.47;;;3.97;;
20144;SDS011;10233;50.814;6.590;2024-01-11T02:57:35;17.47;;;5.53;;
20144;SDS011;10233;50.814;6.590;2024-01-11T02:58:36;7.53;;;4.15;;
20144;SDS011;10233;50.814;6.590;2024-01-11T02:59:36;13.23;;;3.80;;
20144;SDS011;10233;50.814;6.590;2024-01-11T03:00:37;7.80;;;4.13;;
20144;SDS011;10233;50.814;6.590;2024-01-11T03:01:37;10.27;;;3.93;;
20144;SDS011;10233;50.814;6.590;2024-01-11T03:02:37;11.97;;;4.03;;
20144;SDS011;10233;50.814;6.590;2024-01-11T03:03:38;8.60;;;4.00;;
20144;SDS011;10233;50.814;6.590;2024-01-11T03:04:39;7.60;;;4.82;;
20144;SDS011;10233;50.814;6.590;2024-01-11T03:05:39;9.93;;;3.97;;
20144;SDS011;10233;50.814;6.590;2024-01-11T03:06:40;12.23;;;4.93;;
20144;SDS011;10233;50.814;6.590;2024-01-11T03:07:40;10.38;;;4.63;;
20144;SDS011;10233;50.814;6.590;2024-01-11T03:08:41;11.90;;;4.37;;
20144;SDS011;10233;50.814;6.590;2024-01-11T03:09:41;8.50;;;4.03;;
20144;SDS011;10233;50.814;6.590;2024-01-11T03:10:42;7.55;;;3.80;;
20144;SDS011;10233;50.814;6.590;2024-01-11T03:11:42;7.27;;;3.87;;
20144;SDS011;10233;50.814;6.590;2024-01-11T03:12:43;9.13;;;4.53;;
20144;SDS011;10233;50.814;6.590;2024-01-11T03:13:43;8.97;;;3.83;;
20144;SDS011;10233;50.814;6.590;2024-01-11T03:14:44;6.43;;;4.30;;
20144;SDS011;10233;50.814;6.590;2024-01-11T03:15:44;12.88;;;4.35;;
20144;SDS011;10233;50.814;6.590;2024-01-11T03:16:44;11.27;;;4.43;;
20144;SDS011;10233;50.814;6.590;2024-01-11T03:17:45;12.10;;;4.13;;
20144;SDS011;10233;50.814;6.590;2024-01-11T03:18:45;11.20;;;3.90;;
20144;SDS011;10233;50.814;6.590;2024-01-11T03:19:46;6.93;;;3.20;;
20144;SDS011;10233;50.814;6.590;2024-01-11T03:20:46;9.80;;;5.13;;
20144;SDS011;10233;50.814;6.590;2024-01-11T03:21:47;8.23;;;4.07;;
20144;SDS011;10233;50.814;6.590;2024-01-11T03:22:47;9.85;;;3.85;;
20144;SDS011;10233;50.814;6.590;2024-01-11T03:23:48;7.40;;;4.60;;
20144;SDS011;10233;50.814;6.590;2024-01-11T03:24:48;8.80;;;3.87;;
20144;SDS011;10233;50.814;6.590;2024-01-11T03:25:49;13.60;;;4.53;;
20144;SDS011;10233;50.814;6.590;2024-01-11T03:26:50;11.52;;;4.28;;
20144;SDS011;10233;50.814;6.590;2024-01-11T03:27:50;5.15;;;3.55;;
20144;SDS011;10233;50.814;6.590;2024-01-11T03:28:51;7.13;;;3.93;;
20144;SDS011;10233;50.814;6.590;2024-01-11T03:29:51;11.00;;;4.22;;
20144;SDS011;10233;50.814;6.590;2024-01-11T03:30:52;9.13;;;4.53;;
20144;SDS011;10233;50.814;6.590;2024-01-11T03:31:52;9.03;;;4.17;;
20144;SDS011;10233;50.814;6.590;2024-01-11T03:32:53;9.70;;;4.63;;
20144;SDS011;10233;50.814;6.590;2024-01-11T03:33:53;14.03;;;4.23;;
20144;SDS011;10233;50.814;6.590;2024-01-11T03:34:53;9.02;;;4.28;;
20144;SDS011;10233;50.814;6.590;2024-01-11T03:35:54;8.00;;;4.30;;
20144;SDS011;10233;50.814;6.590;2024-01-11T03:36:54;14.00;;;4.23;;
20144;SDS011;10233;50.814;6.590;2024-01-11T03:37:55;7.68;;;3.67;;
20144;SDS011;10233;50.814;6.590;2024-01-11T03:38:55;12.63;;;4.03;;
20144;SDS011;10233;50.814;6.590;2024-01-11T03:39:56;8.18;;;3.83;;
20144;SDS011;10233;50.814;6.590;2024-01-11T03:40:56;7.27;;;3.90;;
20144;SDS011;10233;50.814;6.590;2024-01-11T03:41:56;7.57;;;3.97;;
20144;SDS011;10233;50.814;6.590;2024-01-11T03:42:57;10.70;;;4.13;;
20144;SDS011;10233;50.814;6.590;2024-01-11T03:43:57;11.83;;;5.10;;
20144;SDS011;10233;50.814;6.590;2024-01-11T03:44:58;7.70;;;3.50;;
20144;SDS011;10233;50.814;6.590;2024-01-11T03:45:58;13.63;;;4.70;;
20144;SDS011;10233;50.814;6.590;2024-01-11T03:46:59;11.53;;;4.50;;
20144;SDS011;10233;50.814;6.590;2024-01-11T03:47:59;11.10;;;4.27;;
20144;SDS011;10233;50.814;6.590;2024-01-11T03:49:01;8.33;;;3.73;;
20144;SDS011;10233;50.814;6.590;2024-01-11T03:50:01;12.73;;;4.57;;
20144;SDS011;10233;50.814;6.590;2024-01-11T03:51:02;10.40;;;3.88;;
20144;SDS011;10233;50.814;6.590;2024-01-11T03:52:02;12.40;;;5.17;;
20144;SDS011;10233;50.814;6.590;2024-01-11T03:53:03;8.33;;;3.90;;
20144;SDS011;10233;50.814;6.590;2024-01-11T03:54:04;7.38;;;3.97;;
20144;SDS011;10233;50.814;6.590;2024-01-11T03:55:05;10.90;;;4.20;;
20144;SDS011;10233;50.814;6.590;2024-01-11T03:56:06;11.27;;;4.17;;
20144;SDS011;10233;50.814;6.590;2024-01-11T03:57:06;9.70;;;4.57;;
20144;SDS011;10233;50.814;6.590;2024-01-11T03:58:07;7.85;;;3.65;;
20144;SDS011;10233;50.814;6.590;2024-01-11T03:59:07;8.37;;;3.53;;
20144;SDS011;10233;50.814;6.590;2024-01-11T04:00:08;10.73;;;5.20;;
20144;SDS011;10233;50.814;6.590;2024-01-11T04:01:09;9.43;;;3.90;;
20144;SDS011;10233;50.814;6.590;2024-01-11T04:02:10;11.03;;;4.40;;
20144;SDS011;10233;50.814;6.590;2024-01-11T04:03:10;7.73;;;3.83;;
20144;SDS011;10233;50.814;6.590;2024-01-11T04:04:11;8.85;;;4.80;;
20144;SDS011;10233;50.814;6.590;2024-01-11T04:05:12;9.40;;;4.40;;
20144;SDS011;10233;50.814;6.590;2024-01-11T04:06:19;10.63;;;4.38;;
20144;SDS011;10233;50.814;6.590;2024-01-11T04:07:21;11.13;;;4.15;;
20144;SDS011;10233;50.814;6.590;2024-01-11T04:08:21;8.97;;;4.20;;
20144;SDS011;10233;50.814;6.590;2024-01-11T04:09:22;6.97;;;4.20;;
20144;SDS011;10233;50.814;6.590;2024-01-11T04:10:22;9.20;;;3.93;;
20144;SDS011;10233;50.814;6.590;2024-01-11T04:11:23;6.65;;;3.28;;
20144;SDS011;10233;50.814;6.590;2024-01-11T04:12:27;12.90;;;5.03;;
20144;SDS011;10233;50.814;6.590;2024-01-11T04:13:27;10.93;;;4.03;;
20144;SDS011;10233;50.814;6.590;2024-01-11T04:14:27;11.27;;;4.33;;
20144;SDS011;10233;50.814;6.590;2024-01-11T04:15:28;9.48;;;4.35;;
20144;SDS011;10233;50.814;6.590;2024-01-11T04:16:28;13.93;;;5.63;;
20144;SDS011;10233;50.814;6.590;2024-01-11T04:17:29;8.98;;;4.13;;
20144;SDS011;10233;50.814;6.590;2024-01-11T04:18:29;7.90;;;4.17;;
20144;SDS011;10233;50.814;6.590;2024-01-11T04:19:30;11.47;;;4.17;;
20144;SDS011;10233;50.814;6.590;2024-01-11T04:20:30;11.33;;;4.73;;
20144;SDS011;10233;50.814;6.590;2024-01-11T04:21:30;7.43;;;3.80;;
20144;SDS011;10233;50.814;6.590;2024-01-11T04:22:31;14.57;;;5.18;;
20144;SDS011;10233;50.814;6.590;2024-01-11T04:23:32;9.27;;;4.33;;
20144;SDS011;10233;50.814;6.590;2024-01-11T04:24:32;14.33;;;5.70;;
20144;SDS011;10233;50.814;6.590;2024-01-11T04:25:32;7.55;;;4.43;;
20144;SDS011;10233;50.814;6.590;2024-01-11T04:26:33;9.53;;;5.00;;
20144;SDS011;10233;50.814;6.590;2024-01-11T04:27:34;15.13;;;4.63;;
20144;SDS011;10233;50.814;6.590;2024-01-11T04:28:34;15.88;;;7.22;;
20144;SDS011;10233;50.814;6.590;2024-01-11T04:29:37;20.30;;;8.63;;
20144;SDS011;10233;50.814;6.590;2024-01-11T04:30:37;21.90;;;9.47;;
20144;SDS011;10233;50.814;6.590;2024-01-11T04:31:38;17.98;;;8.77;;
20144;SDS011;10233;50.814;6.590;2024-01-11T04:32:38;13.50;;;6.57;;
20144;SDS011;10233;50.814;6.590;2024-01-11T04:33:42;12.30;;;4.68;;
20144;SDS011;10233;50.814;6.590;2024-01-11T04:34:45;13.00;;;5.28;;
20144;SDS011;10233;50.814;6.590;2024-01-11T04:35:46;10.40;;;5.60;;
20144;SDS011;10233;50.814;6.590;2024-01-11T04:36:46;10.93;;;4.97;;
20144;SDS011;10233;50.814;6.590;2024-01-11T04:37:47;19.00;;;6.40;;
20144;SDS011;10233;50.814;6.590;2024-01-11T04:38:47;23.30;;;7.50;;
20144;SDS011;10233;50.814;6.590;2024-01-11T04:39:47;9.95;;;5.45;;
20144;SDS011;10233;50.814;6.590;2024-01-11T04:40:48;16.17;;;6.20;;
20144;SDS011;10233;50.814;6.590;2024-01-11T04:41:48;14.07;;;6.37;;
20144;SDS011;10233;50.814;6.590;2024-01-11T04:42:51;12.17;;;5.43;;
20144;SDS011;10233;50.814;6.590;2024-01-11T04:43:52;12.00;;;5.95;;
20144;SDS011;10233;50.814;6.590;2024-01-11T04:45:02;11.50;;;5.57;;
20144;SDS011;10233;50.814;6.590;2024-01-11T04:46:17;6.80;;;4.28;;
20144;SDS011;10233;50.814;6.590;2024-01-11T04:47:24;12.45;;;4.85;;
20144;SDS011;10233;50.814;6.590;2024-01-11T04:48:35;12.20;;;4.57;;
20144;SDS011;10233;50.814;6.590;2024-01-11T04:49:37;9.48;;;4.57;;
20144;SDS011;10233;50.814;6.590;2024-01-11T04:50:37;10.45;;;3.92;;
20144;SDS011;10233;50.814;6.590;2024-01-11T04:51:38;9.25;;;4.82;;
20144;SDS011;10233;50.814;6.590;2024-01-11T04:52:38;13.83;;;5.20;;
20144;SDS011;10233;50.814;6.590;2024-01-11T04:53:39;13.43;;;5.17;;
20144;SDS011;10233;50.814;6.590;2024-01-11T04:54:41;11.27;;;4.90;;
20144;SDS011;10233;50.814;6.590;2024-01-11T04:55:41;9.18;;;4.32;;
20144;SDS011;10233;50.814;6.590;2024-01-11T04:56:42;9.90;;;4.95;;
20144;SDS011;10233;50.814;6.590;2024-01-11T04:57:43;15.35;;;5.10;;
20144;SDS011;10233;50.814;6.590;2024-01-11T04:58:44;7.47;;;4.73;;
20144;SDS011;10233;50.814;6.590;2024-01-11T04:59:45;8.50;;;4.25;;
20144;SDS011;10233;50.814;6.590;2024-01-11T05:00:45;9.83;;;4.40;;
20144;SDS011;10233;50.814;6.590;2024-01-11T05:01:46;7.93;;;4.07;;
20144;SDS011;10233;50.814;6.590;2024-01-11T05:02:46;7.40;;;3.95;;
20144;SDS011;10233;50.814;6.590;2024-01-11T05:03:47;11.93;;;4.32;;
20144;SDS011;10233;50.814;6.590;2024-01-11T05:04:47;7.38;;;3.72;;
20144;SDS011;10233;50.814;6.590;2024-01-11T05:05:48;13.60;;;5.40;;
20144;SDS011;10233;50.814;6.590;2024-01-11T05:06:48;14.45;;;4.70;;
20144;SDS011;10233;50.814;6.590;2024-01-11T05:07:51;9.20;;;4.28;;
20144;SDS011;10233;50.814;6.590;2024-01-11T05:08:52;12.57;;;4.87;;
20144;SDS011;10233;50.814;6.590;2024-01-11T05:09:52;9.10;;;4.05;;
20144;SDS011;10233;50.814;6.590;2024-01-11T05:10:53;14.32;;;5.55;;
20144;SDS011;10233;50.814;6.590;2024-01-11T05:11:53;14.68;;;5.38;;
20144;SDS011;10233;50.814;6.590;2024-01-11T05:12:54;19.17;;;7.67;;
20144;SDS011;10233;50.814;6.590;2024-01-11T05:13:54;11.45;;;5.35;;
20144;SDS011;10233;50.814;6.590;2024-01-11T05:14:55;6.00;;;3.67;;
20144;SDS011;10233;50.814;6.590;2024-01-11T05:15:55;15.03;;;5.13;;
20144;SDS011;10233;50.814;6.590;2024-01-11T05:16:56;9.30;;;4.50;;
20144;SDS011;10233;50.814;6.590;2024-01-11T05:17:56;7.87;;;3.57;;
20144;SDS011;10233;50.814;6.590;2024-01-11T05:18:57;12.63;;;6.80;;
20144;SDS011;10233;50.814;6.590;2024-01-11T05:19:58;11.47;;;4.83;;
20144;SDS011;10233;50.814;6.590;2024-01-11T05:20:59;12.60;;;6.77;;
20144;SDS011;10233;50.814;6.590;2024-01-11T05:21:59;11.35;;;6.15;;
20144;SDS011;10233;50.814;6.590;2024-01-11T05:23:00;22.20;;;10.43;;
20144;SDS011;10233;50.814;6.590;2024-01-11T05:24:01;148.55;;;53.00;;
20144;SDS011;10233;50.814;6.590;2024-01-11T05:25:01;142.93;;;43.60;;
20144;SDS011;10233;50.814;6.590;2024-01-11T05:26:02;32.47;;;15.52;;
20144;SDS011;10233;50.814;6.590;2024-01-11T05:27:03;21.80;;;8.53;;
20144;SDS011;10233;50.814;6.590;2024-01-11T05:28:03;17.17;;;7.18;;
20144;SDS011;10233;50.814;6.590;2024-01-11T05:29:04;12.82;;;5.85;;
20144;SDS011;10233;50.814;6.590;2024-01-11T05:30:05;10.50;;;5.78;;
20144;SDS011;10233;50.814;6.590;2024-01-11T05:31:07;13.77;;;5.30;;
20144;SDS011;10233;50.814;6.590;2024-01-11T05:32:09;12.57;;;4.53;;
20144;SDS011;10233;50.814;6.590;2024-01-11T05:33:10;9.17;;;4.00;;
20144;SDS011;10233;50.814;6.590;2024-01-11T05:34:10;10.20;;;5.50;;
20144;SDS011;10233;50.814;6.590;2024-01-11T05:35:12;11.23;;;6.22;;
20144;SDS011;10233;50.814;6.590;2024-01-11T05:36:14;12.35;;;6.85;;
20144;SDS011;10233;50.814;6.590;2024-01-11T05:37:14;10.60;;;6.33;;
20144;SDS011;10233;50.814;6.590;2024-01-11T05:38:14;9.00;;;4.43;;
20144;SDS011;10233;50.814;6.590;2024-01-11T05:39:15;11.97;;;4.80;;
20144;SDS011;10233;50.814;6.590;2024-01-11T05:40:15;15.67;;;6.00;;
20144;SDS011;10233;50.814;6.590;2024-01-11T05:41:16;7.93;;;4.47;;
20144;SDS011;10233;50.814;6.590;2024-01-11T05:42:17;9.13;;;3.95;;
20144;SDS011;10233;50.814;6.590;2024-01-11T05:43:17;16.43;;;5.73;;
20144;SDS011;10233;50.814;6.590;2024-01-11T05:44:18;8.57;;;4.60;;
20144;SDS011;10233;50.814;6.590;2024-01-11T05:45:18;9.82;;;5.18;;
20144;SDS011;10233;50.814;6.590;2024-01-11T05:46:19;10.47;;;4.07;;
20144;SDS011;10233;50.814;6.590;2024-01-11T05:47:19;11.43;;;3.97;;
20144;SDS011;10233;50.814;6.590;2024-01-11T05:48:20;22.30;;;6.53;;
20144;SDS011;10233;50.814;6.590;2024-01-11T05:49:20;10.93;;;4.93;;
20144;SDS011;10233;50.814;6.590;2024-01-11T05:50:21;15.02;;;7.60;;
20144;SDS011;10233;50.814;6.590;2024-01-11T05:51:21;13.20;;;5.47;;
20144;SDS011;10233;50.814;6.590;2024-01-11T05:52:22;11.20;;;5.23;;
20144;SDS011;10233;50.814;6.590;2024-01-11T05:53:22;13.60;;;6.33;;
20144;SDS011;10233;50.814;6.590;2024-01-11T05:54:24;10.18;;;4.78;;
20144;SDS011;10233;50.814;6.590;2024-01-11T05:55:26;8.60;;;4.80;;
20144;SDS011;10233;50.814;6.590;2024-01-11T05:56:27;12.70;;;4.90;;
20144;SDS011;10233;50.814;6.590;2024-01-11T05:57:27;10.38;;;4.05;;
20144;SDS011;10233;50.814;6.590;2024-01-11T05:58:28;7.53;;;4.60;;
20144;SDS011;10233;50.814;6.590;2024-01-11T05:59:28;10.43;;;4.67;;
20144;SDS011;10233;50.814;6.590;2024-01-11T06:00:29;14.05;;;5.22;;
20144;SDS011;10233;50.814;6.590;2024-01-11T06:01:29;20.60;;;7.50;;
20144;SDS011;10233;50.814;6.590;2024-01-11T06:02:30;21.80;;;11.00;;
20144;SDS011;10233;50.814;6.590;2024-01-11T06:03:31;25.83;;;9.38;;